createdAt,value
2022-11-13T00:01:13.714Z,7.59
2022-11-13T00:03:43.244Z,7.53
2022-11-13T00:06:11.974Z,7.52
2022-11-13T00:08:40.142Z,7.49
2022-11-13T00:11:11.186Z,7.56
2022-11-13T00:13:38.911Z,7.48
2022-11-13T00:16:11.188Z,7.56
2022-11-13T00:18:39.403Z,7.40
2022-11-13T00:21:09.614Z,7.39
2022-11-13T00:23:37.968Z,7.28
2022-11-13T00:26:10.636Z,7.22
2022-11-13T00:28:38.538Z,7.18
2022-11-13T00:31:08.312Z,7.13
2022-11-13T00:34:02.397Z,7.28
2022-11-13T00:36:28.234Z,7.40
2022-11-13T00:38:56.164Z,7.36
2022-11-13T00:41:24.319Z,7.44
2022-11-13T00:43:52.142Z,7.32
2022-11-13T00:46:20.197Z,7.28
2022-11-13T00:48:47.947Z,7.33
2022-11-13T00:51:15.637Z,7.42
2022-11-13T00:53:44.775Z,7.45
2022-11-13T00:56:12.589Z,7.48
2022-11-13T00:58:40.276Z,7.41
2022-11-13T01:01:12.155Z,7.45
2022-11-13T01:03:40.699Z,7.51
2022-11-13T01:06:13.516Z,7.47
2022-11-13T01:08:41.306Z,7.45
2022-11-13T01:11:12.289Z,7.53
2022-11-13T01:13:40.391Z,7.49
2022-11-13T01:16:10.402Z,7.44
2022-11-13T01:18:38.575Z,7.44
2022-11-13T01:21:08.328Z,7.49
2022-11-13T01:23:36.567Z,7.34
2022-11-13T01:26:12.348Z,7.27
2022-11-13T01:28:41.238Z,7.42
2022-11-13T01:31:10.921Z,7.44
2022-11-13T01:33:39.181Z,7.36
2022-11-13T01:36:09.445Z,7.47
2022-11-13T01:38:37.706Z,7.36
2022-11-13T01:41:06.678Z,7.49
2022-11-13T01:43:38.110Z,7.40
2022-11-13T01:46:17.297Z,7.47
2022-11-13T01:48:48.529Z,7.55
2022-11-13T01:51:24.379Z,7.47
2022-11-13T01:53:52.886Z,7.31
2022-11-13T01:56:20.836Z,7.28
2022-11-13T01:58:55.672Z,7.35
2022-11-13T02:01:23.430Z,7.39
2022-11-13T02:03:51.182Z,7.40
2022-11-13T02:06:20.097Z,7.39
2022-11-13T02:08:48.871Z,7.42
2022-11-13T02:11:16.949Z,7.41
2022-11-13T02:13:45.492Z,7.35
2022-11-13T02:16:16.141Z,7.38
2022-11-13T02:18:44.230Z,7.37
2022-11-13T02:21:24.308Z,7.45
2022-11-13T02:23:56.983Z,7.22
2022-11-13T02:26:30.355Z,7.23
2022-11-13T02:28:58.086Z,7.29
2022-11-13T02:31:25.906Z,7.37
2022-11-13T02:33:53.606Z,7.50
2022-11-13T02:36:24.000Z,7.44
2022-11-13T02:38:54.062Z,7.32
2022-11-13T02:41:21.782Z,7.27
2022-11-13T02:43:51.195Z,7.27
2022-11-13T02:46:18.912Z,7.25
2022-11-13T02:48:46.627Z,7.38
2022-11-13T02:51:14.492Z,7.40
2022-11-13T02:53:42.576Z,7.40
2022-11-13T02:56:10.325Z,7.39
2022-11-13T02:58:38.062Z,7.35
2022-11-13T03:01:07.523Z,7.45
2022-11-13T03:06:23.384Z,7.34
2022-11-13T03:08:51.211Z,7.36
2022-11-13T03:11:18.937Z,7.26
2022-11-13T03:13:46.619Z,7.13
2022-11-13T03:16:17.857Z,7.20
2022-11-13T03:18:45.581Z,7.23
2022-11-13T03:21:15.363Z,7.35
2022-11-13T03:23:45.009Z,7.20
2022-11-13T03:26:17.015Z,7.11
2022-11-13T03:28:44.997Z,7.14
2022-11-13T03:31:13.234Z,7.23
2022-11-13T03:33:42.722Z,6.99
2022-11-13T03:36:10.757Z,7.15
2022-11-13T03:38:38.736Z,7.11
2022-11-13T03:41:06.768Z,7.11
2022-11-13T03:43:34.496Z,7.20
2022-11-13T03:46:02.261Z,7.18
2022-11-13T03:48:30.669Z,7.16
2022-11-13T03:51:00.112Z,7.12
2022-11-13T03:53:27.811Z,7.19
2022-11-13T03:55:55.574Z,7.25
2022-11-13T03:58:23.315Z,7.20
2022-11-13T04:00:52.218Z,7.22
2022-11-13T04:03:20.114Z,7.19
2022-11-13T04:05:49.790Z,7.20
2022-11-13T04:08:20.079Z,7.22
2022-11-13T04:10:48.207Z,7.18
2022-11-13T04:13:15.975Z,7.17
2022-11-13T04:15:43.736Z,7.15
2022-11-13T04:18:11.434Z,7.03
2022-11-13T04:20:39.270Z,6.98
2022-11-13T04:23:11.527Z,6.93
2022-11-13T04:25:40.623Z,6.94
2022-11-13T04:28:08.285Z,6.98
2022-11-13T04:30:36.003Z,7.00
2022-11-13T04:33:04.059Z,7.15
2022-11-13T04:35:31.908Z,7.03
2022-11-13T04:37:59.617Z,6.96
2022-11-13T04:40:27.560Z,6.94
2022-11-13T04:42:55.655Z,7.03
2022-11-13T04:45:27.430Z,7.05
2022-11-13T04:47:55.408Z,7.05
2022-11-13T04:50:23.672Z,6.96
2022-11-13T04:52:51.539Z,7.03
2022-11-13T04:55:19.221Z,7.01
2022-11-13T04:57:47.015Z,6.91
2022-11-13T05:00:16.894Z,6.94
2022-11-13T05:02:44.661Z,6.92
2022-11-13T05:05:12.384Z,7.06
2022-11-13T05:07:40.075Z,7.14
2022-11-13T05:10:08.119Z,7.23
2022-11-13T05:12:35.809Z,7.23
2022-11-13T05:15:03.632Z,7.21
2022-11-13T05:17:33.011Z,7.13
2022-11-13T05:20:01.093Z,7.15
2022-11-13T05:22:29.677Z,7.20
2022-11-13T05:24:57.405Z,7.15
2022-11-13T05:27:25.159Z,7.02
2022-11-13T05:29:52.854Z,7.20
2022-11-13T05:32:20.580Z,7.08
2022-11-13T05:34:49.846Z,7.08
2022-11-13T05:37:17.530Z,7.04
2022-11-13T05:39:45.225Z,7.12
2022-11-13T05:42:12.988Z,7.01
2022-11-13T05:44:40.667Z,7.08
2022-11-13T05:47:08.717Z,6.89
2022-11-13T05:49:36.379Z,7.03
2022-11-13T05:52:05.508Z,6.83
2022-11-13T05:54:33.230Z,6.81
2022-11-13T05:57:01.071Z,6.75
2022-11-13T05:59:29.077Z,6.86
2022-11-13T06:01:56.818Z,6.97
2022-11-13T06:04:24.603Z,7.06
2022-11-13T06:06:52.407Z,7.03
2022-11-13T06:09:21.577Z,7.02
2022-11-13T06:11:49.246Z,7.01
2022-11-13T06:14:17.540Z,6.94
2022-11-13T06:16:45.384Z,7.00
2022-11-13T06:19:13.179Z,7.08
2022-11-13T06:21:41.911Z,6.86
2022-11-13T06:24:12.483Z,6.92
2022-11-13T06:26:41.709Z,6.96
2022-11-13T06:29:12.838Z,7.07
2022-11-13T06:31:40.959Z,7.03
2022-11-13T06:34:08.681Z,7.06
2022-11-13T06:36:38.457Z,7.10
2022-11-13T06:39:10.592Z,7.10
2022-11-13T06:41:39.502Z,7.06
2022-11-13T06:44:09.173Z,7.00
2022-11-13T06:46:37.228Z,6.94
2022-11-13T06:49:05.004Z,6.93
2022-11-13T06:51:33.213Z,6.94
2022-11-13T06:54:01.046Z,6.92
2022-11-13T06:56:28.736Z,6.90
2022-11-13T06:58:56.835Z,6.86
2022-11-13T07:01:27.266Z,6.76
2022-11-13T07:03:55.266Z,6.77
2022-11-13T07:06:24.974Z,6.86
2022-11-13T07:08:52.961Z,7.00
2022-11-13T07:11:22.345Z,6.92
2022-11-13T07:13:50.920Z,6.88
2022-11-13T07:16:19.035Z,6.91
2022-11-13T07:18:52.161Z,6.90
2022-11-13T07:21:20.892Z,6.95
2022-11-13T07:23:50.303Z,7.04
2022-11-13T07:26:18.408Z,7.07
2022-11-13T07:28:46.714Z,6.91
2022-11-13T07:31:15.491Z,6.80
2022-11-13T07:33:43.168Z,6.94
2022-11-13T07:36:12.734Z,7.09
2022-11-13T07:38:40.459Z,6.79
2022-11-13T07:41:08.601Z,6.96
2022-11-13T07:43:36.436Z,7.01
2022-11-13T07:46:04.509Z,7.11
2022-11-13T07:48:32.447Z,7.18
2022-11-13T07:51:02.554Z,7.16
2022-11-13T07:53:32.350Z,7.08
2022-11-13T07:56:02.532Z,7.21
2022-11-13T07:58:31.159Z,7.14
2022-11-13T08:01:03.926Z,7.15
2022-11-13T08:03:31.849Z,6.94
2022-11-13T08:06:03.575Z,6.96
2022-11-13T08:08:32.690Z,6.77
2022-11-13T08:11:03.914Z,6.93
2022-11-13T08:13:31.623Z,6.87
2022-11-13T08:16:00.947Z,6.74
2022-11-13T08:18:28.909Z,6.88
2022-11-13T08:20:57.350Z,6.90
2022-11-13T08:23:25.073Z,6.85
2022-11-13T08:25:54.539Z,6.97
2022-11-13T08:28:22.251Z,6.94
2022-11-13T08:30:50.277Z,6.97
2022-11-13T08:33:17.987Z,7.02
2022-11-13T08:35:53.599Z,6.97
2022-11-13T08:38:21.384Z,6.86
2022-11-13T08:40:49.496Z,6.93
2022-11-13T08:43:19.382Z,7.11
2022-11-13T08:45:47.708Z,7.05
2022-11-13T08:48:16.142Z,7.09
2022-11-13T08:50:43.862Z,7.22
2022-11-13T08:53:11.659Z,7.12
2022-11-13T08:55:39.378Z,7.20
2022-11-13T08:58:07.402Z,7.13
2022-11-13T09:00:36.515Z,7.00
2022-11-13T09:03:04.706Z,7.02
2022-11-13T09:05:32.506Z,7.10
2022-11-13T09:08:01.774Z,7.21
2022-11-13T09:10:29.963Z,7.17
2022-11-13T09:12:59.099Z,7.32
2022-11-13T09:15:26.996Z,7.28
2022-11-13T09:17:58.979Z,7.36
2022-11-13T09:20:27.024Z,7.52
2022-11-13T09:22:59.209Z,7.33
2022-11-13T09:25:28.584Z,7.15
2022-11-13T09:27:59.562Z,7.35
2022-11-13T09:30:28.399Z,7.35
2022-11-13T09:32:58.827Z,7.37
2022-11-13T09:35:37.098Z,7.52
2022-11-13T09:38:11.226Z,7.54
2022-11-13T09:40:44.247Z,7.17
2022-11-13T09:43:28.273Z,7.30
2022-11-13T09:46:02.157Z,7.63
2022-11-13T09:48:36.819Z,7.52
2022-11-13T09:51:07.516Z,7.67
2022-11-13T09:53:38.653Z,7.74
2022-11-13T09:56:17.078Z,7.58
2022-11-13T09:58:50.426Z,7.75
2022-11-13T10:01:36.575Z,7.70
2022-11-13T10:04:14.207Z,7.72
2022-11-13T10:06:55.864Z,7.48
2022-11-13T10:09:35.683Z,7.60
2022-11-13T10:12:07.433Z,7.75
2022-11-13T10:14:40.060Z,7.66
2022-11-13T10:17:16.201Z,7.31
2022-11-13T10:19:53.614Z,7.56
2022-11-13T10:22:33.293Z,7.60
2022-11-13T10:25:12.955Z,7.70
2022-11-13T10:27:41.019Z,7.46
2022-11-13T10:30:15.234Z,7.55
2022-11-13T10:32:45.068Z,7.65
2022-11-13T10:35:38.414Z,7.53
2022-11-13T10:38:08.956Z,7.64
2022-11-13T10:40:39.391Z,7.73
2022-11-13T10:43:14.485Z,7.42
2022-11-13T10:45:43.528Z,7.61
2022-11-13T10:48:21.702Z,7.42
2022-11-13T10:50:58.601Z,7.63
2022-11-13T10:53:28.503Z,7.61
2022-11-13T10:56:00.637Z,7.59
2022-11-13T10:58:28.907Z,7.69
2022-11-13T11:00:56.877Z,7.83
2022-11-13T11:03:27.086Z,7.90
2022-11-13T11:05:58.031Z,7.63
2022-11-13T11:08:32.039Z,7.79
2022-11-13T11:11:20.171Z,7.84
2022-11-13T11:13:49.513Z,7.84
2022-11-13T11:16:22.011Z,7.74
2022-11-13T11:18:55.139Z,7.82
2022-11-13T11:21:28.091Z,7.74
2022-11-13T11:24:01.204Z,7.89
2022-11-13T11:26:35.520Z,7.70
2022-11-13T11:29:17.681Z,7.57
2022-11-13T11:31:53.968Z,7.68
2022-11-13T11:34:26.309Z,7.74
2022-11-13T11:37:02.249Z,7.53
2022-11-13T11:39:36.619Z,7.81
2022-11-13T11:42:23.454Z,7.72
2022-11-13T11:45:01.219Z,7.82
2022-11-13T11:47:29.360Z,7.87
2022-11-13T11:49:57.315Z,7.88
2022-11-13T11:52:47.462Z,7.94
2022-11-13T11:55:35.593Z,7.92
2022-11-13T11:58:14.323Z,7.87
2022-11-13T12:00:50.454Z,7.93
2022-11-13T12:03:45.168Z,7.77
2022-11-13T12:06:23.194Z,7.77
2022-11-13T12:09:01.257Z,7.78
2022-11-13T12:11:32.342Z,7.84
2022-11-13T12:14:10.777Z,7.64
2022-11-13T12:16:44.507Z,7.85
2022-11-13T12:19:23.377Z,7.95
2022-11-13T12:22:01.475Z,7.95
2022-11-13T12:25:03.794Z,7.81
2022-11-13T12:27:38.294Z,7.92
2022-11-13T12:30:14.580Z,7.68
2022-11-13T12:33:03.156Z,7.72
2022-11-13T12:35:31.099Z,7.92
2022-11-13T12:38:06.945Z,7.69
2022-11-13T12:40:44.612Z,7.70
2022-11-13T12:43:47.809Z,7.74
2022-11-13T12:46:16.085Z,7.52
2022-11-13T12:48:45.288Z,7.70
2022-11-13T12:51:17.196Z,7.53
2022-11-13T12:53:48.180Z,7.51
2022-11-13T12:56:30.656Z,7.76
2022-11-13T12:59:29.205Z,7.65
2022-11-13T13:01:53.227Z,7.74
2022-11-13T13:04:42.574Z,7.86
2022-11-13T13:07:31.373Z,7.83
2022-11-13T13:10:12.185Z,7.86
2022-11-13T13:12:49.501Z,7.83
2022-11-13T13:15:36.039Z,7.94
2022-11-13T13:18:06.902Z,8.00
2022-11-13T13:20:37.493Z,7.97
2022-11-13T13:23:08.747Z,7.92
2022-11-13T13:25:38.530Z,7.85
2022-11-13T13:28:21.259Z,7.95
2022-11-13T13:30:58.091Z,7.90
2022-11-13T13:33:33.141Z,7.67
2022-11-13T13:36:11.721Z,7.78
2022-11-13T13:38:52.089Z,7.86
2022-11-13T13:41:32.287Z,7.87
2022-11-13T13:44:18.732Z,7.94
2022-11-13T13:46:46.629Z,7.77
2022-11-13T13:49:17.930Z,7.73
2022-11-13T13:51:49.313Z,7.66
2022-11-13T13:54:21.010Z,7.63
2022-11-13T13:56:49.018Z,7.58
2022-11-13T13:59:20.825Z,7.82
2022-11-13T14:01:55.963Z,7.94
2022-11-13T14:04:25.755Z,7.73
2022-11-13T14:06:55.286Z,7.73
2022-11-13T14:09:25.159Z,7.89
2022-11-13T14:12:00.544Z,8.05
2022-11-13T14:14:30.479Z,7.95
2022-11-13T14:17:00.443Z,8.06
2022-11-13T14:19:28.817Z,7.94
2022-11-13T14:21:59.534Z,7.96
2022-11-13T14:24:33.812Z,7.79
2022-11-13T14:27:04.611Z,7.78
2022-11-13T14:29:39.004Z,7.91
2022-11-13T14:32:11.543Z,8.02
2022-11-13T14:34:43.938Z,7.92
2022-11-13T14:37:25.560Z,7.77
2022-11-13T14:39:55.647Z,7.77
2022-11-13T14:42:28.262Z,7.85
2022-11-13T14:45:07.077Z,7.83
2022-11-13T14:47:37.633Z,7.78
2022-11-13T14:50:19.736Z,7.79
2022-11-13T14:52:57.540Z,7.80
2022-11-13T14:55:27.447Z,7.92
2022-11-13T14:57:55.145Z,7.94
2022-11-13T15:00:31.661Z,7.85
2022-11-13T15:03:00.308Z,7.89
2022-11-13T15:05:28.526Z,7.97
2022-11-13T15:07:57.643Z,7.81
2022-11-13T15:10:29.081Z,7.77
2022-11-13T15:12:56.741Z,7.75
2022-11-13T15:15:30.161Z,7.72
2022-11-13T15:17:58.099Z,7.68
2022-11-13T15:20:28.340Z,7.69
2022-11-13T15:22:58.096Z,7.68
2022-11-13T15:25:26.929Z,7.64
2022-11-13T15:27:54.605Z,7.56
2022-11-13T15:30:22.418Z,7.54
2022-11-13T15:32:54.070Z,7.55
2022-11-13T15:35:22.390Z,7.55
2022-11-13T15:37:50.084Z,7.57
2022-11-13T15:40:18.722Z,7.56
2022-11-13T15:42:46.955Z,7.61
2022-11-13T15:45:16.618Z,7.50
2022-11-13T15:47:44.611Z,7.61
2022-11-13T15:50:15.203Z,7.62
2022-11-13T15:52:46.698Z,7.72
2022-11-13T15:55:25.645Z,7.74
2022-11-13T15:57:54.062Z,7.72
2022-11-13T16:00:24.967Z,7.79
2022-11-13T16:02:55.233Z,7.82
2022-11-13T16:05:25.647Z,7.78
2022-11-13T16:07:54.126Z,7.71
2022-11-13T16:10:24.867Z,7.68
2022-11-13T16:12:53.218Z,7.62
2022-11-13T16:15:21.714Z,7.67
2022-11-13T16:17:52.536Z,7.70
2022-11-13T16:20:20.509Z,7.60
2022-11-13T16:22:49.732Z,7.70
2022-11-13T16:25:19.209Z,7.70
2022-11-13T16:27:47.439Z,7.74
2022-11-13T16:30:17.124Z,7.75
2022-11-13T16:32:44.851Z,7.58
2022-11-13T16:35:16.772Z,7.69
2022-11-13T16:37:44.497Z,7.68
2022-11-13T16:40:20.396Z,7.61
2022-11-13T16:42:48.266Z,7.66
2022-11-13T16:45:16.313Z,7.77
2022-11-13T16:47:45.956Z,7.71
2022-11-13T16:50:16.707Z,7.67
2022-11-13T16:52:44.433Z,7.64
2022-11-13T16:55:12.255Z,7.69
2022-11-13T16:57:42.063Z,7.54
2022-11-13T17:00:14.757Z,7.61
2022-11-13T17:02:42.949Z,7.63
2022-11-13T17:05:13.762Z,7.61
2022-11-13T17:07:41.522Z,7.68
2022-11-13T17:13:01.862Z,7.64
2022-11-13T17:15:29.668Z,7.68
2022-11-13T17:17:58.242Z,7.75
2022-11-13T17:20:26.307Z,7.64
2022-11-13T17:22:54.027Z,7.64
2022-11-13T17:25:23.287Z,7.64
2022-11-13T17:27:51.015Z,7.63
2022-11-13T17:30:20.334Z,7.67
2022-11-13T17:32:48.021Z,7.59
2022-11-13T17:35:15.764Z,7.65
2022-11-13T17:37:43.509Z,7.51
2022-11-13T17:40:12.792Z,7.61
2022-11-13T17:42:42.356Z,7.65
2022-11-13T17:45:10.805Z,7.65
2022-11-13T17:47:39.873Z,7.67
2022-11-13T17:50:08.686Z,7.75
2022-11-13T17:52:36.446Z,7.75
2022-11-13T17:55:06.174Z,7.73
2022-11-13T17:57:34.355Z,7.74
2022-11-13T18:00:02.093Z,7.75
2022-11-13T18:02:30.616Z,7.79
2022-11-13T18:05:01.276Z,7.75
2022-11-13T18:07:29.657Z,7.75
2022-11-13T18:09:57.618Z,7.61
2022-11-13T18:12:25.461Z,7.77
2022-11-13T18:14:53.313Z,7.79
2022-11-13T18:17:22.135Z,7.72
2022-11-13T18:19:50.542Z,7.73
2022-11-13T18:22:19.784Z,7.75
2022-11-13T18:24:47.678Z,7.77
2022-11-13T18:27:15.886Z,7.79
2022-11-13T18:29:43.650Z,7.76
2022-11-13T18:32:11.364Z,7.77
2022-11-13T18:34:39.172Z,7.72
2022-11-13T18:37:06.882Z,7.76
2022-11-13T18:39:36.084Z,7.87
2022-11-13T18:42:03.909Z,7.81
2022-11-13T18:44:31.653Z,7.71
2022-11-13T18:46:59.648Z,7.71
2022-11-13T18:49:27.333Z,7.67
2022-11-13T18:51:55.114Z,7.68
2022-11-13T18:54:22.860Z,7.74
2022-11-13T18:56:52.018Z,7.67
2022-11-13T18:59:20.032Z,7.72
2022-11-13T19:01:47.860Z,7.65
2022-11-13T19:04:22.653Z,7.72
2022-11-13T19:06:50.859Z,7.73
2022-11-13T19:09:19.078Z,7.67
2022-11-13T19:11:46.974Z,7.68
2022-11-13T19:14:17.754Z,7.61
2022-11-13T19:16:45.544Z,7.60
2022-11-13T19:19:17.329Z,7.50
2022-11-13T19:21:46.116Z,7.42
2022-11-13T19:24:14.771Z,7.17
2022-11-13T19:26:43.581Z,7.05
2022-11-13T19:29:11.585Z,7.06
2022-11-13T19:31:41.125Z,7.08
2022-11-13T19:34:09.684Z,7.08
2022-11-13T19:36:37.691Z,7.02
2022-11-13T19:39:06.123Z,7.02
2022-11-13T19:41:34.187Z,6.90
2022-11-13T19:44:01.889Z,6.88
2022-11-13T19:46:31.909Z,6.95
2022-11-13T19:49:01.244Z,6.95
2022-11-13T19:51:29.215Z,6.98
2022-11-13T19:53:58.410Z,6.92
2022-11-13T19:56:28.170Z,6.97
2022-11-13T19:58:56.627Z,7.05
2022-11-13T20:01:25.888Z,7.00
2022-11-13T20:03:58.101Z,7.05
2022-11-13T20:06:27.790Z,7.02
2022-11-13T20:08:55.802Z,7.13
2022-11-13T20:11:23.515Z,7.21
2022-11-13T20:13:51.264Z,7.15
2022-11-13T20:16:20.927Z,7.21
2022-11-13T20:18:48.767Z,7.17
2022-11-13T20:21:16.826Z,7.13
2022-11-13T20:23:46.222Z,7.14
2022-11-13T20:26:16.652Z,7.06
2022-11-13T20:28:44.590Z,7.19
2022-11-13T20:31:16.381Z,7.27
2022-11-13T20:33:44.521Z,7.32
2022-11-13T20:36:12.821Z,7.22
2022-11-13T20:38:40.794Z,7.16
2022-11-13T20:41:11.834Z,7.07
2022-11-13T20:43:39.752Z,7.14
2022-11-13T20:46:10.208Z,7.14
2022-11-13T20:48:38.069Z,7.22
2022-11-13T20:51:07.646Z,7.26
2022-11-13T20:53:36.117Z,7.30
2022-11-13T20:56:04.395Z,7.26
2022-11-13T20:58:33.555Z,7.25
2022-11-13T21:01:05.314Z,7.24
2022-11-13T21:03:37.115Z,7.30
2022-11-13T21:06:08.951Z,7.36
2022-11-13T21:08:36.777Z,7.28
2022-11-13T21:11:06.988Z,7.26
2022-11-13T21:13:36.708Z,7.29
2022-11-13T21:16:06.807Z,7.18
2022-11-13T21:18:34.621Z,7.25
2022-11-13T21:21:06.998Z,7.09
2022-11-13T21:23:34.941Z,7.12
2022-11-13T21:26:04.275Z,7.05
2022-11-13T21:28:33.629Z,7.03
2022-11-13T21:31:04.408Z,7.11
2022-11-13T21:33:32.301Z,7.22
2022-11-13T21:36:05.224Z,7.09
2022-11-13T21:38:32.987Z,7.20
2022-11-13T21:41:18.532Z,7.25
2022-11-13T21:43:46.253Z,7.29
2022-11-13T21:46:15.524Z,7.23
2022-11-13T21:48:43.583Z,7.22
2022-11-13T21:51:11.678Z,7.31
2022-11-13T21:53:40.231Z,7.40
2022-11-13T21:56:15.101Z,7.40
2022-11-13T21:58:43.305Z,7.45
2022-11-13T22:01:12.877Z,7.41
2022-11-13T22:03:42.997Z,7.47
2022-11-13T22:06:15.659Z,7.47
2022-11-13T22:08:43.769Z,7.43
2022-11-13T22:11:12.183Z,7.45
2022-11-13T22:13:40.306Z,7.38
2022-11-13T22:16:09.935Z,7.39
2022-11-13T22:18:37.682Z,7.33
2022-11-13T22:21:08.848Z,7.31
2022-11-13T22:23:37.202Z,7.34
2022-11-13T22:26:06.247Z,7.40
2022-11-13T22:28:35.218Z,7.35
2022-11-13T22:31:05.979Z,7.33
2022-11-13T22:33:35.774Z,7.18
2022-11-13T22:36:07.049Z,7.18
2022-11-13T22:38:35.109Z,7.12
2022-11-13T22:41:04.315Z,7.04
2022-11-13T22:43:36.621Z,7.19
2022-11-13T22:46:06.096Z,7.19
2022-11-13T22:48:35.123Z,7.15
2022-11-13T22:51:09.138Z,7.18
2022-11-13T22:53:37.474Z,7.23
2022-11-13T22:56:06.953Z,7.19
2022-11-13T22:58:35.182Z,7.24
2022-11-13T23:01:07.088Z,7.18
2022-11-13T23:03:38.756Z,7.19
2022-11-13T23:06:08.720Z,7.14
2022-11-13T23:08:38.851Z,7.19
2022-11-13T23:11:07.718Z,7.21
2022-11-13T23:13:35.658Z,7.21
2022-11-13T23:16:03.773Z,7.22
2022-11-13T23:18:32.254Z,7.26
2022-11-13T23:21:00.180Z,7.17
2022-11-13T23:23:29.354Z,7.07
2022-11-13T23:25:57.466Z,7.04
2022-11-13T23:28:25.152Z,6.91
2022-11-13T23:30:52.861Z,6.96
2022-11-13T23:33:21.076Z,7.00
2022-11-13T23:35:48.947Z,7.02
2022-11-13T23:38:17.017Z,7.07
2022-11-13T23:40:46.139Z,6.98
2022-11-13T23:43:14.036Z,7.04
2022-11-13T23:45:41.942Z,6.98
2022-11-13T23:48:09.622Z,6.96
2022-11-13T23:50:38.079Z,6.95
2022-11-13T23:53:05.789Z,6.88
2022-11-13T23:55:33.611Z,6.89
2022-11-13T23:58:04.678Z,6.79
